Portada
METAR-TAF:

METAR-TAF

Aeroports :

Galesburg Municipal Airport

Galesburg, Illinois, Estats Units d'Amèrica

latitud: 40-56-17N, longitud: 090-25-52W, altitud: 233 m

Observació

L'informe es va fer fa 35 minuts, a les 04:55 UTC
Vent 3 kt del Sud/Sud-Oest
Temperatura 20°C
Humitat 100%
Pressió 1013 hPa
Visibilitat: 16.1 km
Cel clar

METAR: KGBG 140455Z AUTO 20003KT 10SM CLR 20/20 A2992 RMK AO2 T02030203

Hora: 00:30 (05:30 UTC)


TAF: manca

Observacions i pronòstics meteorològics de més de 4000 aeroports (METAR i TAF).

Les estacions disponibles són els punts grocs i vermells al mapa.

Posi el ratolí al punt desitjat per veure el nom de l'estació.

Feu clic per veure les observacions i els pronòstics meteorològics.

Per canviar el mapa: feu clic els botons verds amb una creu de color negre per apropar; al botó verd amb un guió per allunyar la imatge; o en les fletxes verdes per a mapes adjacents.


METAR-TAF: